Terminal Aerodrome Forecast
Issued by NWS Wakefield, VA

Home | Current Version | Previous Version | Text Only | Print | Product List | Glossary On
Versions: 1 2 3 4 5 6 7 8 9 10 11 12 13 14 15 16 17
000
FTUS41 KAKQ 302328
TAFECG
TAF
KECG 302328Z 3100/3124 11010KT P6SM BKN070
     FM310700 13007KT P6SM VCSH OVC045
     FM311200 14012G19KT 6SM -SHRA OVC050
     FM311400 15014G22KT 3SM SHRA OVC012
     FM311600 16015G23KT 4SM SHRA OVC008
     FM312100 18015G25KT 6SM -SHRA BKN050=

USA.gov is the U.S. government's official web portal to all federal, state and local government web resources and services.